sensor_id;sensor_type;location;lat;lon;timestamp;P1;durP1;ratioP1;P2;durP2;ratioP2
64903;SDS011;51401;48.882;12.598;2023-09-19T00:00:22;3.88;;;2.20;;
64903;SDS011;51401;48.882;12.598;2023-09-19T00:02:56;3.85;;;2.58;;
64903;SDS011;51401;48.882;12.598;2023-09-19T00:05:24;3.50;;;2.80;;
64903;SDS011;51401;48.882;12.598;2023-09-19T00:07:53;4.15;;;2.80;;
64903;SDS011;51401;48.882;12.598;2023-09-19T00:10:19;3.75;;;2.70;;
64903;SDS011;51401;48.882;12.598;2023-09-19T00:12:54;4.35;;;3.20;;
64903;SDS011;51401;48.882;12.598;2023-09-19T00:15:24;5.65;;;2.95;;
64903;SDS011;51401;48.882;12.598;2023-09-19T00:17:51;4.93;;;3.08;;
64903;SDS011;51401;48.882;12.598;2023-09-19T00:20:17;5.97;;;2.95;;
64903;SDS011;51401;48.882;12.598;2023-09-19T00:22:43;5.22;;;2.97;;
64903;SDS011;51401;48.882;12.598;2023-09-19T00:25:08;4.80;;;2.88;;
64903;SDS011;51401;48.882;12.598;2023-09-19T00:27:38;4.70;;;2.70;;
64903;SDS011;51401;48.882;12.598;2023-09-19T00:30:08;6.97;;;3.10;;
64903;SDS011;51401;48.882;12.598;2023-09-19T00:32:40;3.75;;;2.53;;
64903;SDS011;51401;48.882;12.598;2023-09-19T00:35:06;4.03;;;3.17;;
64903;SDS011;51401;48.882;12.598;2023-09-19T00:37:33;7.38;;;2.80;;
64903;SDS011;51401;48.882;12.598;2023-09-19T00:39:59;4.15;;;2.17;;
64903;SDS011;51401;48.882;12.598;2023-09-19T00:42:24;6.65;;;3.55;;
64903;SDS011;51401;48.882;12.598;2023-09-19T00:44:50;4.70;;;2.78;;
64903;SDS011;51401;48.882;12.598;2023-09-19T00:47:17;3.83;;;2.67;;
64903;SDS011;51401;48.882;12.598;2023-09-19T00:49:46;4.72;;;3.00;;
64903;SDS011;51401;48.882;12.598;2023-09-19T00:52:17;3.70;;;2.30;;
64903;SDS011;51401;48.882;12.598;2023-09-19T00:54:46;3.38;;;2.28;;
64903;SDS011;51401;48.882;12.598;2023-09-19T00:57:12;4.28;;;2.15;;
64903;SDS011;51401;48.882;12.598;2023-09-19T00:59:40;6.85;;;3.05;;
64903;SDS011;51401;48.882;12.598;2023-09-19T01:02:06;4.90;;;2.90;;
64903;SDS011;51401;48.882;12.598;2023-09-19T01:04:31;2.60;;;2.13;;
64903;SDS011;51401;48.882;12.598;2023-09-19T01:06:57;2.50;;;2.22;;
64903;SDS011;51401;48.882;12.598;2023-09-19T01:09:23;3.10;;;2.38;;
64903;SDS011;51401;48.882;12.598;2023-09-19T01:11:48;3.08;;;2.30;;
64903;SDS011;51401;48.882;12.598;2023-09-19T01:17:14;3.40;;;2.20;;
64903;SDS011;51401;48.882;12.598;2023-09-19T01:22:26;5.78;;;2.50;;
64903;SDS011;51401;48.882;12.598;2023-09-19T01:28:01;3.95;;;2.22;;
64903;SDS011;51401;48.882;12.598;2023-09-19T01:30:52;3.35;;;2.20;;
64903;SDS011;51401;48.882;12.598;2023-09-19T01:33:25;3.78;;;2.20;;
64903;SDS011;51401;48.882;12.598;2023-09-19T01:35:51;3.45;;;1.98;;
64903;SDS011;51401;48.882;12.598;2023-09-19T01:38:17;2.55;;;2.17;;
64903;SDS011;51401;48.882;12.598;2023-09-19T01:40:49;3.65;;;1.95;;
64903;SDS011;51401;48.882;12.598;2023-09-19T01:43:36;2.95;;;1.80;;
64903;SDS011;51401;48.882;12.598;2023-09-19T01:51:37;4.47;;;2.40;;
64903;SDS011;51401;48.882;12.598;2023-09-19T01:54:11;3.15;;;2.00;;
64903;SDS011;51401;48.882;12.598;2023-09-19T01:59:24;7.38;;;2.20;;
64903;SDS011;51401;48.882;12.598;2023-09-19T02:01:53;4.20;;;2.67;;
64903;SDS011;51401;48.882;12.598;2023-09-19T02:04:19;4.15;;;2.58;;
64903;SDS011;51401;48.882;12.598;2023-09-19T02:06:45;4.07;;;2.67;;
64903;SDS011;51401;48.882;12.598;2023-09-19T02:09:12;4.28;;;2.63;;
64903;SDS011;51401;48.882;12.598;2023-09-19T02:11:39;4.50;;;2.65;;
64903;SDS011;51401;48.882;12.598;2023-09-19T02:14:06;5.05;;;2.92;;
64903;SDS011;51401;48.882;12.598;2023-09-19T02:16:33;4.97;;;2.97;;
64903;SDS011;51401;48.882;12.598;2023-09-19T02:18:59;5.95;;;3.25;;
64903;SDS011;51401;48.882;12.598;2023-09-19T02:21:25;6.97;;;3.25;;
64903;SDS011;51401;48.882;12.598;2023-09-19T02:23:54;4.07;;;2.72;;
64903;SDS011;51401;48.882;12.598;2023-09-19T02:26:20;6.55;;;2.97;;
64903;SDS011;51401;48.882;12.598;2023-09-19T02:28:45;5.38;;;2.90;;
64903;SDS011;51401;48.882;12.598;2023-09-19T02:31:10;4.13;;;3.13;;
64903;SDS011;51401;48.882;12.598;2023-09-19T02:33:36;6.15;;;3.53;;
64903;SDS011;51401;48.882;12.598;2023-09-19T02:36:02;4.88;;;3.15;;
64903;SDS011;51401;48.882;12.598;2023-09-19T02:38:28;4.63;;;3.08;;
64903;SDS011;51401;48.882;12.598;2023-09-19T02:40:54;3.70;;;2.63;;
64903;SDS011;51401;48.882;12.598;2023-09-19T02:43:22;5.55;;;2.60;;
64903;SDS011;51401;48.882;12.598;2023-09-19T02:45:48;3.42;;;2.88;;
64903;SDS011;51401;48.882;12.598;2023-09-19T02:48:18;7.72;;;2.95;;
64903;SDS011;51401;48.882;12.598;2023-09-19T02:50:44;5.13;;;3.08;;
64903;SDS011;51401;48.882;12.598;2023-09-19T02:53:10;5.60;;;3.08;;
64903;SDS011;51401;48.882;12.598;2023-09-19T02:55:39;4.68;;;2.90;;
64903;SDS011;51401;48.882;12.598;2023-09-19T02:58:07;4.47;;;3.35;;
64903;SDS011;51401;48.882;12.598;2023-09-19T03:00:39;5.88;;;2.95;;
64903;SDS011;51401;48.882;12.598;2023-09-19T03:03:06;5.60;;;3.10;;
64903;SDS011;51401;48.882;12.598;2023-09-19T03:05:33;3.97;;;2.95;;
64903;SDS011;51401;48.882;12.598;2023-09-19T03:07:59;4.53;;;2.85;;
64903;SDS011;51401;48.882;12.598;2023-09-19T03:10:28;4.68;;;3.28;;
64903;SDS011;51401;48.882;12.598;2023-09-19T03:12:54;4.57;;;2.95;;
64903;SDS011;51401;48.882;12.598;2023-09-19T03:15:19;3.33;;;2.63;;
64903;SDS011;51401;48.882;12.598;2023-09-19T03:17:47;2.97;;;2.65;;
64903;SDS011;51401;48.882;12.598;2023-09-19T03:20:13;5.90;;;3.22;;
64903;SDS011;51401;48.882;12.598;2023-09-19T03:22:39;5.03;;;2.95;;
64903;SDS011;51401;48.882;12.598;2023-09-19T03:25:05;4.70;;;2.50;;
64903;SDS011;51401;48.882;12.598;2023-09-19T03:27:33;4.82;;;3.13;;
64903;SDS011;51401;48.882;12.598;2023-09-19T03:29:59;3.90;;;2.65;;
64903;SDS011;51401;48.882;12.598;2023-09-19T03:32:25;3.40;;;2.60;;
64903;SDS011;51401;48.882;12.598;2023-09-19T03:34:50;6.63;;;3.88;;
64903;SDS011;51401;48.882;12.598;2023-09-19T03:37:18;4.10;;;2.45;;
64903;SDS011;51401;48.882;12.598;2023-09-19T03:39:44;3.30;;;2.85;;
64903;SDS011;51401;48.882;12.598;2023-09-19T03:42:09;3.97;;;2.45;;
64903;SDS011;51401;48.882;12.598;2023-09-19T03:44:35;3.35;;;2.53;;
64903;SDS011;51401;48.882;12.598;2023-09-19T03:47:00;3.35;;;2.70;;
64903;SDS011;51401;48.882;12.598;2023-09-19T03:49:26;6.32;;;3.30;;
64903;SDS011;51401;48.882;12.598;2023-09-19T03:51:51;3.40;;;2.78;;
64903;SDS011;51401;48.882;12.598;2023-09-19T03:54:17;7.50;;;2.70;;
64903;SDS011;51401;48.882;12.598;2023-09-19T03:56:44;4.43;;;2.88;;
64903;SDS011;51401;48.882;12.598;2023-09-19T03:59:10;4.13;;;3.10;;
64903;SDS011;51401;48.882;12.598;2023-09-19T04:01:37;5.20;;;3.22;;
64903;SDS011;51401;48.882;12.598;2023-09-19T04:04:02;3.85;;;2.60;;
64903;SDS011;51401;48.882;12.598;2023-09-19T04:06:33;4.38;;;2.53;;
64903;SDS011;51401;48.882;12.598;2023-09-19T04:09:00;2.92;;;2.35;;
64903;SDS011;51401;48.882;12.598;2023-09-19T04:11:26;6.30;;;2.78;;
64903;SDS011;51401;48.882;12.598;2023-09-19T04:13:52;4.07;;;2.83;;
64903;SDS011;51401;48.882;12.598;2023-09-19T04:16:17;4.30;;;2.30;;
64903;SDS011;51401;48.882;12.598;2023-09-19T04:18:42;4.88;;;2.55;;
64903;SDS011;51401;48.882;12.598;2023-09-19T04:21:08;7.10;;;3.58;;
64903;SDS011;51401;48.882;12.598;2023-09-19T04:23:34;4.70;;;2.90;;
64903;SDS011;51401;48.882;12.598;2023-09-19T04:25:59;4.43;;;3.40;;
64903;SDS011;51401;48.882;12.598;2023-09-19T04:28:25;3.22;;;2.53;;
64903;SDS011;51401;48.882;12.598;2023-09-19T04:30:52;3.22;;;2.90;;
64903;SDS011;51401;48.882;12.598;2023-09-19T04:33:18;5.22;;;3.30;;
64903;SDS011;51401;48.882;12.598;2023-09-19T04:35:43;4.60;;;2.90;;
64903;SDS011;51401;48.882;12.598;2023-09-19T04:38:09;7.60;;;2.67;;
64903;SDS011;51401;48.882;12.598;2023-09-19T04:40:34;3.65;;;2.53;;
64903;SDS011;51401;48.882;12.598;2023-09-19T04:43:00;3.30;;;2.90;;
64903;SDS011;51401;48.882;12.598;2023-09-19T04:45:26;4.60;;;2.80;;
64903;SDS011;51401;48.882;12.598;2023-09-19T04:47:53;2.92;;;2.33;;
64903;SDS011;51401;48.882;12.598;2023-09-19T04:50:19;2.70;;;2.33;;
64903;SDS011;51401;48.882;12.598;2023-09-19T04:52:46;2.85;;;2.33;;
64903;SDS011;51401;48.882;12.598;2023-09-19T04:55:15;3.28;;;2.47;;
64903;SDS011;51401;48.882;12.598;2023-09-19T04:57:45;5.00;;;2.42;;
64903;SDS011;51401;48.882;12.598;2023-09-19T05:00:15;5.05;;;2.58;;
64903;SDS011;51401;48.882;12.598;2023-09-19T05:02:51;4.95;;;2.58;;
64903;SDS011;51401;48.882;12.598;2023-09-19T05:05:17;7.40;;;4.00;;
64903;SDS011;51401;48.882;12.598;2023-09-19T05:07:44;4.28;;;2.38;;
64903;SDS011;51401;48.882;12.598;2023-09-19T05:10:11;2.95;;;2.08;;
64903;SDS011;51401;48.882;12.598;2023-09-19T05:12:37;5.47;;;2.35;;
64903;SDS011;51401;48.882;12.598;2023-09-19T05:15:03;8.10;;;2.60;;
64903;SDS011;51401;48.882;12.598;2023-09-19T05:17:32;4.72;;;2.80;;
64903;SDS011;51401;48.882;12.598;2023-09-19T05:19:59;5.50;;;2.90;;
64903;SDS011;51401;48.882;12.598;2023-09-19T05:22:30;5.50;;;2.53;;
64903;SDS011;51401;48.882;12.598;2023-09-19T05:24:57;3.75;;;2.50;;
64903;SDS011;51401;48.882;12.598;2023-09-19T05:27:22;4.07;;;2.78;;
64903;SDS011;51401;48.882;12.598;2023-09-19T05:29:48;3.13;;;2.33;;
64903;SDS011;51401;48.882;12.598;2023-09-19T05:32:15;2.90;;;1.88;;
64903;SDS011;51401;48.882;12.598;2023-09-19T05:34:41;4.13;;;1.80;;
64903;SDS011;51401;48.882;12.598;2023-09-19T05:37:06;2.70;;;1.70;;
64903;SDS011;51401;48.882;12.598;2023-09-19T05:39:32;2.58;;;1.63;;
64903;SDS011;51401;48.882;12.598;2023-09-19T05:41:57;2.78;;;1.65;;
64903;SDS011;51401;48.882;12.598;2023-09-19T05:44:23;4.03;;;1.30;;
64903;SDS011;51401;48.882;12.598;2023-09-19T05:46:49;4.30;;;1.50;;
64903;SDS011;51401;48.882;12.598;2023-09-19T05:49:14;2.45;;;1.38;;
64903;SDS011;51401;48.882;12.598;2023-09-19T05:51:41;2.35;;;1.35;;
64903;SDS011;51401;48.882;12.598;2023-09-19T05:54:06;2.08;;;1.35;;
64903;SDS011;51401;48.882;12.598;2023-09-19T05:56:31;2.13;;;1.40;;
64903;SDS011;51401;48.882;12.598;2023-09-19T05:58:56;3.20;;;1.53;;
64903;SDS011;51401;48.882;12.598;2023-09-19T06:01:22;2.95;;;1.38;;
64903;SDS011;51401;48.882;12.598;2023-09-19T06:03:47;4.55;;;1.70;;
64903;SDS011;51401;48.882;12.598;2023-09-19T06:06:13;6.10;;;1.42;;
64903;SDS011;51401;48.882;12.598;2023-09-19T06:08:39;2.70;;;1.38;;
64903;SDS011;51401;48.882;12.598;2023-09-19T06:11:04;1.70;;;1.23;;
64903;SDS011;51401;48.882;12.598;2023-09-19T06:13:32;2.67;;;1.48;;
64903;SDS011;51401;48.882;12.598;2023-09-19T06:15:58;1.50;;;1.00;;
64903;SDS011;51401;48.882;12.598;2023-09-19T06:18:25;2.47;;;1.33;;
64903;SDS011;51401;48.882;12.598;2023-09-19T06:20:51;2.20;;;1.20;;
64903;SDS011;51401;48.882;12.598;2023-09-19T06:23:17;2.15;;;1.10;;
64903;SDS011;51401;48.882;12.598;2023-09-19T06:25:43;1.35;;;1.17;;
64903;SDS011;51401;48.882;12.598;2023-09-19T06:28:08;3.30;;;1.20;;
64903;SDS011;51401;48.882;12.598;2023-09-19T06:30:37;2.05;;;1.30;;
64903;SDS011;51401;48.882;12.598;2023-09-19T06:33:05;2.10;;;1.40;;
64903;SDS011;51401;48.882;12.598;2023-09-19T06:35:31;1.80;;;1.20;;
64903;SDS011;51401;48.882;12.598;2023-09-19T06:37:57;2.83;;;1.15;;
64903;SDS011;51401;48.882;12.598;2023-09-19T06:40:23;2.20;;;1.00;;
64903;SDS011;51401;48.882;12.598;2023-09-19T06:42:50;1.88;;;1.23;;
64903;SDS011;51401;48.882;12.598;2023-09-19T06:45:17;1.67;;;1.17;;
64903;SDS011;51401;48.882;12.598;2023-09-19T06:47:43;1.92;;;1.13;;
64903;SDS011;51401;48.882;12.598;2023-09-19T06:50:16;2.22;;;1.20;;
64903;SDS011;51401;48.882;12.598;2023-09-19T06:52:47;1.55;;;0.77;;
64903;SDS011;51401;48.882;12.598;2023-09-19T06:55:15;2.33;;;0.95;;
64903;SDS011;51401;48.882;12.598;2023-09-19T06:57:44;1.25;;;1.10;;
64903;SDS011;51401;48.882;12.598;2023-09-19T07:00:10;1.95;;;0.98;;
64903;SDS011;51401;48.882;12.598;2023-09-19T07:02:43;2.55;;;1.13;;
64903;SDS011;51401;48.882;12.598;2023-09-19T07:05:09;2.63;;;1.30;;
64903;SDS011;51401;48.882;12.598;2023-09-19T07:07:34;2.80;;;1.20;;
64903;SDS011;51401;48.882;12.598;2023-09-19T07:10:03;4.00;;;1.33;;
64903;SDS011;51401;48.882;12.598;2023-09-19T07:12:33;2.50;;;1.27;;
64903;SDS011;51401;48.882;12.598;2023-09-19T07:14:58;2.53;;;1.10;;
64903;SDS011;51401;48.882;12.598;2023-09-19T07:17:24;2.97;;;1.38;;
64903;SDS011;51401;48.882;12.598;2023-09-19T07:19:49;2.20;;;1.15;;
64903;SDS011;51401;48.882;12.598;2023-09-19T07:22:15;3.10;;;1.40;;
64903;SDS011;51401;48.882;12.598;2023-09-19T07:24:43;2.20;;;1.33;;
64903;SDS011;51401;48.882;12.598;2023-09-19T07:27:08;2.70;;;1.30;;
64903;SDS011;51401;48.882;12.598;2023-09-19T07:29:34;1.42;;;1.17;;
64903;SDS011;51401;48.882;12.598;2023-09-19T07:31:59;2.95;;;1.52;;
64903;SDS011;51401;48.882;12.598;2023-09-19T07:34:25;4.30;;;1.60;;
64903;SDS011;51401;48.882;12.598;2023-09-19T07:36:50;2.27;;;1.60;;
64903;SDS011;51401;48.882;12.598;2023-09-19T07:39:15;3.08;;;1.63;;
64903;SDS011;51401;48.882;12.598;2023-09-19T07:41:41;1.30;;;1.10;;
64903;SDS011;51401;48.882;12.598;2023-09-19T07:44:07;2.78;;;1.52;;
64903;SDS011;51401;48.882;12.598;2023-09-19T07:46:32;4.57;;;1.58;;
64903;SDS011;51401;48.882;12.598;2023-09-19T07:48:58;5.35;;;1.85;;
64903;SDS011;51401;48.882;12.598;2023-09-19T07:51:23;2.67;;;1.30;;
64903;SDS011;51401;48.882;12.598;2023-09-19T07:53:49;1.80;;;1.48;;
64903;SDS011;51401;48.882;12.598;2023-09-19T07:56:14;2.90;;;1.53;;
64903;SDS011;51401;48.882;12.598;2023-09-19T07:58:40;2.40;;;1.52;;
64903;SDS011;51401;48.882;12.598;2023-09-19T08:01:09;2.97;;;1.80;;
64903;SDS011;51401;48.882;12.598;2023-09-19T08:03:36;2.97;;;1.70;;
64903;SDS011;51401;48.882;12.598;2023-09-19T08:06:09;2.30;;;1.42;;
64903;SDS011;51401;48.882;12.598;2023-09-19T08:08:35;4.25;;;1.58;;
64903;SDS011;51401;48.882;12.598;2023-09-19T08:11:02;3.05;;;1.52;;
64903;SDS011;51401;48.882;12.598;2023-09-19T08:13:35;2.10;;;1.60;;
64903;SDS011;51401;48.882;12.598;2023-09-19T08:16:03;1.58;;;1.20;;
64903;SDS011;51401;48.882;12.598;2023-09-19T08:18:30;2.30;;;1.67;;
64903;SDS011;51401;48.882;12.598;2023-09-19T08:20:55;2.67;;;1.45;;
64903;SDS011;51401;48.882;12.598;2023-09-19T08:23:23;2.65;;;1.58;;
64903;SDS011;51401;48.882;12.598;2023-09-19T08:25:49;2.08;;;1.25;;
64903;SDS011;51401;48.882;12.598;2023-09-19T08:28:14;4.28;;;1.67;;
64903;SDS011;51401;48.882;12.598;2023-09-19T08:30:47;2.90;;;1.90;;
64903;SDS011;51401;48.882;12.598;2023-09-19T08:33:12;3.00;;;2.03;;
64903;SDS011;51401;48.882;12.598;2023-09-19T08:35:40;1.92;;;1.40;;
64903;SDS011;51401;48.882;12.598;2023-09-19T08:38:06;2.42;;;1.80;;
64903;SDS011;51401;48.882;12.598;2023-09-19T08:40:32;2.37;;;1.97;;
64903;SDS011;51401;48.882;12.598;2023-09-19T08:42:58;5.18;;;2.00;;
64903;SDS011;51401;48.882;12.598;2023-09-19T08:45:25;2.97;;;1.80;;
64903;SDS011;51401;48.882;12.598;2023-09-19T08:51:02;2.22;;;1.65;;
64903;SDS011;51401;48.882;12.598;2023-09-19T08:56:08;4.85;;;2.33;;
64903;SDS011;51401;48.882;12.598;2023-09-19T08:58:40;2.40;;;2.03;;
64903;SDS011;51401;48.882;12.598;2023-09-19T09:01:16;3.13;;;1.90;;
64903;SDS011;51401;48.882;12.598;2023-09-19T09:03:49;2.05;;;1.77;;
64903;SDS011;51401;48.882;12.598;2023-09-19T09:06:16;2.85;;;1.63;;
64903;SDS011;51401;48.882;12.598;2023-09-19T09:08:43;3.30;;;1.60;;
64903;SDS011;51401;48.882;12.598;2023-09-19T09:11:09;1.88;;;1.77;;
64903;SDS011;51401;48.882;12.598;2023-09-19T09:13:36;2.78;;;1.77;;
64903;SDS011;51401;48.882;12.598;2023-09-19T09:16:02;2.05;;;1.60;;
64903;SDS011;51401;48.882;12.598;2023-09-19T09:18:28;4.00;;;1.52;;
64903;SDS011;51401;48.882;12.598;2023-09-19T09:20:55;2.15;;;1.50;;
64903;SDS011;51401;48.882;12.598;2023-09-19T09:23:21;2.42;;;1.58;;
64903;SDS011;51401;48.882;12.598;2023-09-19T09:25:50;1.98;;;1.70;;
64903;SDS011;51401;48.882;12.598;2023-09-19T09:28:21;2.63;;;1.60;;
64903;SDS011;51401;48.882;12.598;2023-09-19T09:30:50;2.17;;;1.55;;
64903;SDS011;51401;48.882;12.598;2023-09-19T09:33:16;1.63;;;1.23;;
64903;SDS011;51401;48.882;12.598;2023-09-19T09:35:55;1.83;;;1.40;;
64903;SDS011;51401;48.882;12.598;2023-09-19T09:38:46;2.58;;;1.40;;
64903;SDS011;51401;48.882;12.598;2023-09-19T09:41:13;2.75;;;1.60;;
64903;SDS011;51401;48.882;12.598;2023-09-19T09:43:52;2.10;;;1.30;;
64903;SDS011;51401;48.882;12.598;2023-09-19T09:46:18;2.08;;;1.67;;
64903;SDS011;51401;48.882;12.598;2023-09-19T09:48:57;3.63;;;1.52;;
64903;SDS011;51401;48.882;12.598;2023-09-19T09:51:42;1.52;;;1.27;;
64903;SDS011;51401;48.882;12.598;2023-09-19T09:54:14;1.88;;;1.30;;
64903;SDS011;51401;48.882;12.598;2023-09-19T09:56:57;1.25;;;1.10;;
64903;SDS011;51401;48.882;12.598;2023-09-19T10:02:15;2.65;;;1.30;;
64903;SDS011;51401;48.882;12.598;2023-09-19T10:04:49;3.42;;;1.70;;
64903;SDS011;51401;48.882;12.598;2023-09-19T10:07:30;2.55;;;1.30;;
64903;SDS011;51401;48.882;12.598;2023-09-19T10:10:15;1.70;;;1.30;;
64903;SDS011;51401;48.882;12.598;2023-09-19T10:13:03;2.67;;;1.30;;
64903;SDS011;51401;48.882;12.598;2023-09-19T10:15:31;2.45;;;1.25;;
64903;SDS011;51401;48.882;12.598;2023-09-19T10:17:57;1.05;;;0.90;;
64903;SDS011;51401;48.882;12.598;2023-09-19T10:20:29;1.45;;;1.10;;
64903;SDS011;51401;48.882;12.598;2023-09-19T10:22:55;4.20;;;1.52;;
64903;SDS011;51401;48.882;12.598;2023-09-19T10:25:26;2.60;;;1.60;;
64903;SDS011;51401;48.882;12.598;2023-09-19T10:27:54;2.10;;;1.48;;
64903;SDS011;51401;48.882;12.598;2023-09-19T10:30:20;13.30;;;3.38;;
64903;SDS011;51401;48.882;12.598;2023-09-19T10:32:48;6.38;;;1.35;;
64903;SDS011;51401;48.882;12.598;2023-09-19T10:35:23;5.72;;;1.23;;
64903;SDS011;51401;48.882;12.598;2023-09-19T10:37:49;2.10;;;1.17;;
64903;SDS011;51401;48.882;12.598;2023-09-19T10:40:16;1.67;;;0.80;;
64903;SDS011;51401;48.882;12.598;2023-09-19T10:42:45;2.78;;;1.45;;
64903;SDS011;51401;48.882;12.598;2023-09-19T10:45:13;1.30;;;1.02;;
64903;SDS011;51401;48.882;12.598;2023-09-19T10:47:42;2.53;;;1.10;;
64903;SDS011;51401;48.882;12.598;2023-09-19T10:50:08;1.70;;;1.10;;
64903;SDS011;51401;48.882;12.598;2023-09-19T10:52:34;1.42;;;0.90;;
64903;SDS011;51401;48.882;12.598;2023-09-19T10:55:06;1.58;;;1.08;;
64903;SDS011;51401;48.882;12.598;2023-09-19T10:57:32;1.77;;;1.02;;
64903;SDS011;51401;48.882;12.598;2023-09-19T11:00:02;1.40;;;0.85;;
64903;SDS011;51401;48.882;12.598;2023-09-19T11:05:45;3.47;;;1.10;;
64903;SDS011;51401;48.882;12.598;2023-09-19T11:08:26;1.55;;;1.20;;
64903;SDS011;51401;48.882;12.598;2023-09-19T11:10:52;2.30;;;1.27;;
64903;SDS011;51401;48.882;12.598;2023-09-19T11:13:24;2.30;;;1.05;;
64903;SDS011;51401;48.882;12.598;2023-09-19T11:26:40;2.30;;;1.20;;
64903;SDS011;51401;48.882;12.598;2023-09-19T11:29:29;1.77;;;1.10;;
64903;SDS011;51401;48.882;12.598;2023-09-19T11:31:58;1.42;;;1.00;;
64903;SDS011;51401;48.882;12.598;2023-09-19T11:37:01;2.58;;;0.95;;
64903;SDS011;51401;48.882;12.598;2023-09-19T11:39:29;3.05;;;0.90;;
64903;SDS011;51401;48.882;12.598;2023-09-19T11:41:54;2.65;;;1.10;;
64903;SDS011;51401;48.882;12.598;2023-09-19T11:44:32;2.70;;;1.00;;
64903;SDS011;51401;48.882;12.598;2023-09-19T11:46:59;8.27;;;1.35;;
64903;SDS011;51401;48.882;12.598;2023-09-19T11:49:28;1.05;;;0.88;;
64903;SDS011;51401;48.882;12.598;2023-09-19T11:51:55;2.63;;;1.10;;
64903;SDS011;51401;48.882;12.598;2023-09-19T11:54:21;1.83;;;1.10;;
64903;SDS011;51401;48.882;12.598;2023-09-19T11:56:53;1.52;;;1.08;;
64903;SDS011;51401;48.882;12.598;2023-09-19T11:59:23;1.48;;;1.00;;
64903;SDS011;51401;48.882;12.598;2023-09-19T12:01:57;1.88;;;1.10;;
64903;SDS011;51401;48.882;12.598;2023-09-19T12:04:33;2.03;;;0.90;;
64903;SDS011;51401;48.882;12.598;2023-09-19T12:07:14;1.25;;;0.88;;
64903;SDS011;51401;48.882;12.598;2023-09-19T12:09:41;1.42;;;0.90;;
64903;SDS011;51401;48.882;12.598;2023-09-19T12:12:23;1.92;;;1.02;;
64903;SDS011;51401;48.882;12.598;2023-09-19T12:14:53;1.38;;;1.00;;
64903;SDS011;51401;48.882;12.598;2023-09-19T12:17:20;1.77;;;1.05;;
64903;SDS011;51401;48.882;12.598;2023-09-19T12:19:52;2.10;;;1.20;;
64903;SDS011;51401;48.882;12.598;2023-09-19T12:22:18;3.83;;;1.30;;
64903;SDS011;51401;48.882;12.598;2023-09-19T12:24:45;1.77;;;1.50;;
64903;SDS011;51401;48.882;12.598;2023-09-19T12:27:11;1.27;;;0.90;;
64903;SDS011;51401;48.882;12.598;2023-09-19T12:29:42;1.10;;;1.00;;
64903;SDS011;51401;48.882;12.598;2023-09-19T12:32:09;1.73;;;0.90;;
64903;SDS011;51401;48.882;12.598;2023-09-19T12:34:35;1.65;;;1.20;;
64903;SDS011;51401;48.882;12.598;2023-09-19T12:39:47;2.42;;;1.33;;
64903;SDS011;51401;48.882;12.598;2023-09-19T12:42:25;1.95;;;1.40;;
64903;SDS011;51401;48.882;12.598;2023-09-19T12:44:56;2.38;;;1.20;;
64903;SDS011;51401;48.882;12.598;2023-09-19T12:47:26;2.05;;;1.40;;
64903;SDS011;51401;48.882;12.598;2023-09-19T12:52:38;1.38;;;1.17;;
64903;SDS011;51401;48.882;12.598;2023-09-19T12:55:28;2.15;;;1.30;;
64903;SDS011;51401;48.882;12.598;2023-09-19T13:00:38;2.17;;;1.50;;
64903;SDS011;51401;48.882;12.598;2023-09-19T13:03:50;1.95;;;1.10;;
64903;SDS011;51401;48.882;12.598;2023-09-19T13:05:58;1.15;;;1.05;;
64903;SDS011;51401;48.882;12.598;2023-09-19T13:08:35;1.65;;;1.30;;
64903;SDS011;51401;48.882;12.598;2023-09-19T13:13:34;2.15;;;1.08;;
64903;SDS011;51401;48.882;12.598;2023-09-19T13:16:20;1.08;;;0.95;;
64903;SDS011;51401;48.882;12.598;2023-09-19T13:18:48;1.90;;;0.90;;
64903;SDS011;51401;48.882;12.598;2023-09-19T13:21:27;1.17;;;0.80;;
64903;SDS011;51401;48.882;12.598;2023-09-19T13:26:47;2.60;;;1.10;;
64903;SDS011;51401;48.882;12.598;2023-09-19T13:29:13;2.67;;;1.20;;
64903;SDS011;51401;48.882;12.598;2023-09-19T13:31:42;1.88;;;1.00;;
64903;SDS011;51401;48.882;12.598;2023-09-19T13:34:10;1.20;;;1.10;;
64903;SDS011;51401;48.882;12.598;2023-09-19T13:36:36;1.57;;;1.00;;
64903;SDS011;51401;48.882;12.598;2023-09-19T13:39:02;1.73;;;0.88;;
64903;SDS011;51401;48.882;12.598;2023-09-19T13:41:27;1.70;;;1.00;;
64903;SDS011;51401;48.882;12.598;2023-09-19T13:43:54;1.80;;;0.88;;
64903;SDS011;51401;48.882;12.598;2023-09-19T13:46:22;2.75;;;1.13;;
64903;SDS011;51401;48.882;12.598;2023-09-19T13:48:50;1.05;;;0.70;;
64903;SDS011;51401;48.882;12.598;2023-09-19T13:51:20;1.40;;;0.80;;
64903;SDS011;51401;48.882;12.598;2023-09-19T13:53:50;2.22;;;0.90;;
64903;SDS011;51401;48.882;12.598;2023-09-19T13:56:16;1.58;;;0.80;;
64903;SDS011;51401;48.882;12.598;2023-09-19T13:58:41;1.40;;;0.80;;
64903;SDS011;51401;48.882;12.598;2023-09-19T14:01:07;1.90;;;0.90;;
64903;SDS011;51401;48.882;12.598;2023-09-19T14:03:38;1.30;;;0.68;;
64903;SDS011;51401;48.882;12.598;2023-09-19T14:06:04;1.35;;;0.80;;
64903;SDS011;51401;48.882;12.598;2023-09-19T14:08:29;1.42;;;0.70;;
64903;SDS011;51401;48.882;12.598;2023-09-19T14:10:55;3.60;;;1.00;;
64903;SDS011;51401;48.882;12.598;2023-09-19T14:13:21;1.65;;;0.75;;
64903;SDS011;51401;48.882;12.598;2023-09-19T14:15:46;1.38;;;0.82;;
64903;SDS011;51401;48.882;12.598;2023-09-19T14:18:12;1.07;;;0.80;;
64903;SDS011;51401;48.882;12.598;2023-09-19T14:20:38;1.30;;;0.80;;
64903;SDS011;51401;48.882;12.598;2023-09-19T14:23:05;1.17;;;0.70;;
64903;SDS011;51401;48.882;12.598;2023-09-19T14:25:31;1.95;;;0.98;;
64903;SDS011;51401;48.882;12.598;2023-09-19T14:27:59;1.10;;;0.60;;
64903;SDS011;51401;48.882;12.598;2023-09-19T14:30:24;2.87;;;1.20;;
64903;SDS011;51401;48.882;12.598;2023-09-19T14:32:50;2.10;;;0.85;;
64903;SDS011;51401;48.882;12.598;2023-09-19T14:35:16;1.25;;;0.77;;
64903;SDS011;51401;48.882;12.598;2023-09-19T14:37:41;2.17;;;1.20;;
64903;SDS011;51401;48.882;12.598;2023-09-19T14:40:07;0.90;;;0.73;;
64903;SDS011;51401;48.882;12.598;2023-09-19T14:42:34;1.52;;;1.10;;
64903;SDS011;51401;48.882;12.598;2023-09-19T14:45:01;2.13;;;0.98;;
64903;SDS011;51401;48.882;12.598;2023-09-19T14:47:27;1.50;;;0.82;;
64903;SDS011;51401;48.882;12.598;2023-09-19T14:49:53;3.03;;;1.02;;
64903;SDS011;51401;48.882;12.598;2023-09-19T14:52:18;1.97;;;0.93;;
64903;SDS011;51401;48.882;12.598;2023-09-19T14:54:43;2.03;;;1.08;;
64903;SDS011;51401;48.882;12.598;2023-09-19T14:57:09;1.50;;;1.17;;
64903;SDS011;51401;48.882;12.598;2023-09-19T14:59:35;1.95;;;1.20;;
64903;SDS011;51401;48.882;12.598;2023-09-19T15:02:02;2.03;;;1.10;;
64903;SDS011;51401;48.882;12.598;2023-09-19T15:04:29;1.30;;;1.00;;
64903;SDS011;51401;48.882;12.598;2023-09-19T15:06:54;1.60;;;1.10;;
64903;SDS011;51401;48.882;12.598;2023-09-19T15:09:20;1.95;;;1.10;;
64903;SDS011;51401;48.882;12.598;2023-09-19T15:11:51;2.10;;;0.93;;
64903;SDS011;51401;48.882;12.598;2023-09-19T15:14:20;1.92;;;0.93;;
64903;SDS011;51401;48.882;12.598;2023-09-19T15:16:46;1.35;;;0.90;;
64903;SDS011;51401;48.882;12.598;2023-09-19T15:19:12;1.33;;;1.10;;
64903;SDS011;51401;48.882;12.598;2023-09-19T15:21:38;2.58;;;0.90;;
64903;SDS011;51401;48.882;12.598;2023-09-19T15:24:04;1.40;;;0.90;;
64903;SDS011;51401;48.882;12.598;2023-09-19T15:26:30;1.45;;;0.90;;
64903;SDS011;51401;48.882;12.598;2023-09-19T15:28:55;2.67;;;1.23;;
64903;SDS011;51401;48.882;12.598;2023-09-19T15:31:21;2.13;;;1.20;;
64903;SDS011;51401;48.882;12.598;2023-09-19T15:33:46;2.55;;;1.00;;